Aughton, United Kingdom
Current Conditions -  °F | °C
As of 3:50 PM on Friday 24 Oct 2014 (Local Time) from EGCN Reporting Station
Few Clouds Few Clouds  
Wind Chill: 59°   Ceiling: Unl
Heat Index: 59°   Visibility: 6mi
Dew Point: 52°   Wind: 7mph
Humidity: 77%   Direction: 260°W
Pressure: 29.85"   Gusts: NA
Location:  53.36°N, 1.27°W
Report Text: EGCN 241450Z 26006KT 9999 FEW045 15/11 Q1011
Loading
Personal Weather Stations






























Interactive Weather Map New forecast layout! Learn more

10-Day Weather Forecast

Advertisements
Track Severe Weather on mobile